sensor_id;sensor_type;location;lat;lon;timestamp;pressure;altitude;pressure_sealevel;temperature
20736;BMP180;10528;52.124;5.196;2023-04-25T00:00:14;100985.00;;;13.80
20736;BMP180;10528;52.124;5.196;2023-04-25T00:02:41;100992.00;;;13.80
20736;BMP180;10528;52.124;5.196;2023-04-25T00:05:09;100991.00;;;13.80
20736;BMP180;10528;52.124;5.196;2023-04-25T00:07:37;100996.00;;;13.80
20736;BMP180;10528;52.124;5.196;2023-04-25T00:10:06;100995.00;;;13.80
20736;BMP180;10528;52.124;5.196;2023-04-25T00:12:32;100991.00;;;13.80
20736;BMP180;10528;52.124;5.196;2023-04-25T00:15:00;100992.00;;;13.80
20736;BMP180;10528;52.124;5.196;2023-04-25T00:17:27;100986.00;;;13.80
20736;BMP180;10528;52.124;5.196;2023-04-25T00:19:54;100986.00;;;13.80
20736;BMP180;10528;52.124;5.196;2023-04-25T00:22:21;100988.00;;;13.80
20736;BMP180;10528;52.124;5.196;2023-04-25T00:24:48;100993.00;;;13.90
20736;BMP180;10528;52.124;5.196;2023-04-25T00:27:15;100989.00;;;13.90
20736;BMP180;10528;52.124;5.196;2023-04-25T00:29:42;100994.00;;;13.90
20736;BMP180;10528;52.124;5.196;2023-04-25T00:32:09;100997.00;;;13.90
20736;BMP180;10528;52.124;5.196;2023-04-25T00:34:36;101001.00;;;13.90
20736;BMP180;10528;52.124;5.196;2023-04-25T00:37:03;100997.00;;;13.90
20736;BMP180;10528;52.124;5.196;2023-04-25T00:39:30;100995.00;;;13.90
20736;BMP180;10528;52.124;5.196;2023-04-25T00:41:58;101009.00;;;13.90
20736;BMP180;10528;52.124;5.196;2023-04-25T00:44:26;100998.00;;;13.90
20736;BMP180;10528;52.124;5.196;2023-04-25T00:46:54;101004.00;;;13.90
20736;BMP180;10528;52.124;5.196;2023-04-25T00:49:21;100991.00;;;13.90
20736;BMP180;10528;52.124;5.196;2023-04-25T00:51:48;101001.00;;;13.80
20736;BMP180;10528;52.124;5.196;2023-04-25T00:54:16;101001.00;;;13.80
20736;BMP180;10528;52.124;5.196;2023-04-25T00:56:43;100995.00;;;13.80
20736;BMP180;10528;52.124;5.196;2023-04-25T00:59:12;100998.00;;;13.70
20736;BMP180;10528;52.124;5.196;2023-04-25T01:01:39;100997.00;;;13.70
20736;BMP180;10528;52.124;5.196;2023-04-25T01:04:08;100995.00;;;13.60
20736;BMP180;10528;52.124;5.196;2023-04-25T01:06:35;101000.00;;;13.60
20736;BMP180;10528;52.124;5.196;2023-04-25T01:09:03;100994.00;;;13.60
20736;BMP180;10528;52.124;5.196;2023-04-25T01:11:31;101004.00;;;13.50
20736;BMP180;10528;52.124;5.196;2023-04-25T01:13:58;101008.00;;;13.50
20736;BMP180;10528;52.124;5.196;2023-04-25T01:16:26;101002.00;;;13.40
20736;BMP180;10528;52.124;5.196;2023-04-25T01:18:54;101011.00;;;13.40
20736;BMP180;10528;52.124;5.196;2023-04-25T01:21:21;101006.00;;;13.30
20736;BMP180;10528;52.124;5.196;2023-04-25T01:23:48;101015.00;;;13.30
20736;BMP180;10528;52.124;5.196;2023-04-25T01:26:17;101010.00;;;13.20
20736;BMP180;10528;52.124;5.196;2023-04-25T01:28:45;101015.00;;;13.20
20736;BMP180;10528;52.124;5.196;2023-04-25T01:31:12;101016.00;;;13.10
20736;BMP180;10528;52.124;5.196;2023-04-25T01:33:39;101020.00;;;13.10
20736;BMP180;10528;52.124;5.196;2023-04-25T01:36:07;101023.00;;;13.10
20736;BMP180;10528;52.124;5.196;2023-04-25T01:38:35;101018.00;;;13.10
20736;BMP180;10528;52.124;5.196;2023-04-25T01:41:02;101023.00;;;13.00
20736;BMP180;10528;52.124;5.196;2023-04-25T01:43:29;101028.00;;;13.00
20736;BMP180;10528;52.124;5.196;2023-04-25T01:45:57;101014.00;;;12.90
20736;BMP180;10528;52.124;5.196;2023-04-25T01:48:24;101018.00;;;12.90
20736;BMP180;10528;52.124;5.196;2023-04-25T01:50:51;101023.00;;;12.90
20736;BMP180;10528;52.124;5.196;2023-04-25T01:53:18;101031.00;;;12.90
20736;BMP180;10528;52.124;5.196;2023-04-25T01:55:45;101036.00;;;12.80
20736;BMP180;10528;52.124;5.196;2023-04-25T01:58:15;101036.00;;;12.80
20736;BMP180;10528;52.124;5.196;2023-04-25T02:01:04;101038.00;;;12.80
20736;BMP180;10528;52.124;5.196;2023-04-25T02:03:39;101037.00;;;12.70
20736;BMP180;10528;52.124;5.196;2023-04-25T02:06:12;101038.00;;;12.70
20736;BMP180;10528;52.124;5.196;2023-04-25T02:08:43;101035.00;;;12.70
20736;BMP180;10528;52.124;5.196;2023-04-25T02:11:11;101042.00;;;12.70
20736;BMP180;10528;52.124;5.196;2023-04-25T02:13:44;101036.00;;;12.70
20736;BMP180;10528;52.124;5.196;2023-04-25T02:16:35;101047.00;;;12.60
20736;BMP180;10528;52.124;5.196;2023-04-25T02:19:02;101044.00;;;12.60
20736;BMP180;10528;52.124;5.196;2023-04-25T02:21:30;101047.00;;;12.70
20736;BMP180;10528;52.124;5.196;2023-04-25T02:23:57;101047.00;;;12.70
20736;BMP180;10528;52.124;5.196;2023-04-25T02:26:27;101041.00;;;12.60
20736;BMP180;10528;52.124;5.196;2023-04-25T02:28:54;101051.00;;;12.60
20736;BMP180;10528;52.124;5.196;2023-04-25T02:31:21;101049.00;;;12.60
20736;BMP180;10528;52.124;5.196;2023-04-25T02:33:50;101052.00;;;12.60
20736;BMP180;10528;52.124;5.196;2023-04-25T02:36:17;101056.00;;;12.70
20736;BMP180;10528;52.124;5.196;2023-04-25T02:38:44;101045.00;;;12.60
20736;BMP180;10528;52.124;5.196;2023-04-25T02:41:11;101044.00;;;12.60
20736;BMP180;10528;52.124;5.196;2023-04-25T02:43:37;101040.00;;;12.70
20736;BMP180;10528;52.124;5.196;2023-04-25T02:46:04;101038.00;;;12.70
20736;BMP180;10528;52.124;5.196;2023-04-25T02:48:31;101048.00;;;12.70
20736;BMP180;10528;52.124;5.196;2023-04-25T02:50:58;101053.00;;;12.70
20736;BMP180;10528;52.124;5.196;2023-04-25T02:53:25;101050.00;;;12.70
20736;BMP180;10528;52.124;5.196;2023-04-25T02:55:53;101041.00;;;12.70
20736;BMP180;10528;52.124;5.196;2023-04-25T02:58:21;101051.00;;;12.70
20736;BMP180;10528;52.124;5.196;2023-04-25T03:00:50;101060.00;;;12.70
20736;BMP180;10528;52.124;5.196;2023-04-25T03:03:17;101060.00;;;12.70
20736;BMP180;10528;52.124;5.196;2023-04-25T03:05:50;101049.00;;;12.70
20736;BMP180;10528;52.124;5.196;2023-04-25T03:08:22;101065.00;;;12.70
20736;BMP180;10528;52.124;5.196;2023-04-25T03:10:49;101060.00;;;12.70
20736;BMP180;10528;52.124;5.196;2023-04-25T03:13:18;101064.00;;;12.70
20736;BMP180;10528;52.124;5.196;2023-04-25T03:15:45;101060.00;;;12.70
20736;BMP180;10528;52.124;5.196;2023-04-25T03:18:12;101059.00;;;12.70
20736;BMP180;10528;52.124;5.196;2023-04-25T03:20:39;101068.00;;;12.70
20736;BMP180;10528;52.124;5.196;2023-04-25T03:23:08;101072.00;;;12.70
20736;BMP180;10528;52.124;5.196;2023-04-25T03:25:36;101079.00;;;12.60
20736;BMP180;10528;52.124;5.196;2023-04-25T03:28:03;101081.00;;;12.70
20736;BMP180;10528;52.124;5.196;2023-04-25T03:30:31;101081.00;;;12.70
20736;BMP180;10528;52.124;5.196;2023-04-25T03:32:58;101073.00;;;12.70
20736;BMP180;10528;52.124;5.196;2023-04-25T03:35:25;101066.00;;;12.70
20736;BMP180;10528;52.124;5.196;2023-04-25T03:37:52;101059.00;;;12.70
20736;BMP180;10528;52.124;5.196;2023-04-25T03:40:24;101067.00;;;12.70
20736;BMP180;10528;52.124;5.196;2023-04-25T03:43:09;101073.00;;;12.70
20736;BMP180;10528;52.124;5.196;2023-04-25T03:45:39;101074.00;;;12.70
20736;BMP180;10528;52.124;5.196;2023-04-25T03:48:06;101066.00;;;12.70
20736;BMP180;10528;52.124;5.196;2023-04-25T03:50:33;101072.00;;;12.70
20736;BMP180;10528;52.124;5.196;2023-04-25T03:53:00;101066.00;;;12.80
20736;BMP180;10528;52.124;5.196;2023-04-25T03:55:31;101071.00;;;12.80
20736;BMP180;10528;52.124;5.196;2023-04-25T03:57:58;101077.00;;;12.80
20736;BMP180;10528;52.124;5.196;2023-04-25T04:00:26;101082.00;;;12.80
20736;BMP180;10528;52.124;5.196;2023-04-25T04:02:53;101076.00;;;12.80
20736;BMP180;10528;52.124;5.196;2023-04-25T04:05:20;101084.00;;;12.80
20736;BMP180;10528;52.124;5.196;2023-04-25T04:07:53;101085.00;;;12.80
20736;BMP180;10528;52.124;5.196;2023-04-25T04:10:21;101091.00;;;12.80
20736;BMP180;10528;52.124;5.196;2023-04-25T04:12:48;101105.00;;;12.80
20736;BMP180;10528;52.124;5.196;2023-04-25T04:15:16;101106.00;;;12.80
20736;BMP180;10528;52.124;5.196;2023-04-25T04:17:48;101104.00;;;12.70
20736;BMP180;10528;52.124;5.196;2023-04-25T04:20:17;101111.00;;;12.70
20736;BMP180;10528;52.124;5.196;2023-04-25T04:22:44;101112.00;;;12.70
20736;BMP180;10528;52.124;5.196;2023-04-25T04:25:13;101116.00;;;12.70
20736;BMP180;10528;52.124;5.196;2023-04-25T04:27:58;101122.00;;;12.60
20736;BMP180;10528;52.124;5.196;2023-04-25T04:30:36;101121.00;;;12.60
20736;BMP180;10528;52.124;5.196;2023-04-25T04:33:06;101118.00;;;12.70
20736;BMP180;10528;52.124;5.196;2023-04-25T04:35:34;101128.00;;;12.70
20736;BMP180;10528;52.124;5.196;2023-04-25T04:38:01;101118.00;;;12.70
20736;BMP180;10528;52.124;5.196;2023-04-25T04:40:33;101127.00;;;12.70
20736;BMP180;10528;52.124;5.196;2023-04-25T04:43:11;101124.00;;;12.70
20736;BMP180;10528;52.124;5.196;2023-04-25T04:45:57;101131.00;;;12.70
20736;BMP180;10528;52.124;5.196;2023-04-25T04:48:47;101134.00;;;12.70
20736;BMP180;10528;52.124;5.196;2023-04-25T04:51:35;101137.00;;;12.70
20736;BMP180;10528;52.124;5.196;2023-04-25T04:54:11;101145.00;;;12.70
20736;BMP180;10528;52.124;5.196;2023-04-25T04:56:51;101146.00;;;12.70
20736;BMP180;10528;52.124;5.196;2023-04-25T04:59:51;101151.00;;;12.70
20736;BMP180;10528;52.124;5.196;2023-04-25T05:02:48;101154.00;;;12.70
20736;BMP180;10528;52.124;5.196;2023-04-25T05:05:50;101156.00;;;12.80
20736;BMP180;10528;52.124;5.196;2023-04-25T05:08:40;101149.00;;;12.80
20736;BMP180;10528;52.124;5.196;2023-04-25T05:11:36;101156.00;;;12.80
20736;BMP180;10528;52.124;5.196;2023-04-25T05:14:12;101155.00;;;12.90
20736;BMP180;10528;52.124;5.196;2023-04-25T05:16:47;101157.00;;;12.90
20736;BMP180;10528;52.124;5.196;2023-04-25T05:19:30;101160.00;;;12.90
20736;BMP180;10528;52.124;5.196;2023-04-25T05:22:15;101161.00;;;12.90
20736;BMP180;10528;52.124;5.196;2023-04-25T05:25:10;101162.00;;;12.90
20736;BMP180;10528;52.124;5.196;2023-04-25T05:27:50;101168.00;;;13.00
20736;BMP180;10528;52.124;5.196;2023-04-25T05:30:37;101180.00;;;13.00
20736;BMP180;10528;52.124;5.196;2023-04-25T05:33:09;101176.00;;;13.00
20736;BMP180;10528;52.124;5.196;2023-04-25T05:35:36;101168.00;;;13.00
20736;BMP180;10528;52.124;5.196;2023-04-25T05:38:02;101182.00;;;13.00
20736;BMP180;10528;52.124;5.196;2023-04-25T05:40:58;101178.00;;;13.10
20736;BMP180;10528;52.124;5.196;2023-04-25T05:43:48;101198.00;;;13.10
20736;BMP180;10528;52.124;5.196;2023-04-25T05:46:37;101188.00;;;13.20
20736;BMP180;10528;52.124;5.196;2023-04-25T05:49:24;101193.00;;;13.30
20736;BMP180;10528;52.124;5.196;2023-04-25T05:52:29;101196.00;;;13.30
20736;BMP180;10528;52.124;5.196;2023-04-25T05:55:08;101194.00;;;13.40
20736;BMP180;10528;52.124;5.196;2023-04-25T05:57:35;101199.00;;;13.40
20736;BMP180;10528;52.124;5.196;2023-04-25T06:00:03;101196.00;;;13.50
20736;BMP180;10528;52.124;5.196;2023-04-25T06:02:42;101202.00;;;13.60
20736;BMP180;10528;52.124;5.196;2023-04-25T06:05:12;101205.00;;;13.60
20736;BMP180;10528;52.124;5.196;2023-04-25T06:07:40;101213.00;;;13.70
20736;BMP180;10528;52.124;5.196;2023-04-25T06:10:07;101213.00;;;13.80
20736;BMP180;10528;52.124;5.196;2023-04-25T06:12:34;101219.00;;;13.80
20736;BMP180;10528;52.124;5.196;2023-04-25T06:15:04;101227.00;;;13.90
20736;BMP180;10528;52.124;5.196;2023-04-25T06:17:49;101221.00;;;14.00
20736;BMP180;10528;52.124;5.196;2023-04-25T06:20:16;101223.00;;;14.00
20736;BMP180;10528;52.124;5.196;2023-04-25T06:22:43;101230.00;;;14.10
20736;BMP180;10528;52.124;5.196;2023-04-25T06:25:10;101219.00;;;14.20
20736;BMP180;10528;52.124;5.196;2023-04-25T06:27:37;101235.00;;;14.30
20736;BMP180;10528;52.124;5.196;2023-04-25T06:30:05;101242.00;;;14.40
20736;BMP180;10528;52.124;5.196;2023-04-25T06:32:33;101227.00;;;14.40
20736;BMP180;10528;52.124;5.196;2023-04-25T06:35:01;101237.00;;;14.50
20736;BMP180;10528;52.124;5.196;2023-04-25T06:37:28;101239.00;;;14.60
20736;BMP180;10528;52.124;5.196;2023-04-25T06:39:55;101242.00;;;14.60
20736;BMP180;10528;52.124;5.196;2023-04-25T06:42:22;101244.00;;;14.70
20736;BMP180;10528;52.124;5.196;2023-04-25T06:44:53;101241.00;;;15.10
20736;BMP180;10528;52.124;5.196;2023-04-25T06:47:20;101256.00;;;15.50
20736;BMP180;10528;52.124;5.196;2023-04-25T06:49:49;101257.00;;;15.80
20736;BMP180;10528;52.124;5.196;2023-04-25T06:52:16;101262.00;;;16.00
20736;BMP180;10528;52.124;5.196;2023-04-25T06:54:45;101261.00;;;16.20
20736;BMP180;10528;52.124;5.196;2023-04-25T06:57:33;101267.00;;;16.40
20736;BMP180;10528;52.124;5.196;2023-04-25T07:00:17;101265.00;;;16.50
20736;BMP180;10528;52.124;5.196;2023-04-25T07:02:44;101276.00;;;16.60
20736;BMP180;10528;52.124;5.196;2023-04-25T07:05:12;101272.00;;;16.70
20736;BMP180;10528;52.124;5.196;2023-04-25T07:07:39;101266.00;;;16.70
20736;BMP180;10528;52.124;5.196;2023-04-25T07:10:06;101279.00;;;16.70
20736;BMP180;10528;52.124;5.196;2023-04-25T07:12:33;101274.00;;;16.80
20736;BMP180;10528;52.124;5.196;2023-04-25T07:15:00;101269.00;;;16.90
20736;BMP180;10528;52.124;5.196;2023-04-25T07:17:32;101281.00;;;17.00
20736;BMP180;10528;52.124;5.196;2023-04-25T07:20:00;101282.00;;;17.00
20736;BMP180;10528;52.124;5.196;2023-04-25T07:22:27;101275.00;;;17.10
20736;BMP180;10528;52.124;5.196;2023-04-25T07:24:55;101280.00;;;17.10
20736;BMP180;10528;52.124;5.196;2023-04-25T07:27:24;101288.00;;;17.20
20736;BMP180;10528;52.124;5.196;2023-04-25T07:29:59;101292.00;;;17.10
20736;BMP180;10528;52.124;5.196;2023-04-25T07:32:26;101300.00;;;17.10
20736;BMP180;10528;52.124;5.196;2023-04-25T07:34:53;101291.00;;;16.90
20736;BMP180;10528;52.124;5.196;2023-04-25T07:37:20;101303.00;;;16.80
20736;BMP180;10528;52.124;5.196;2023-04-25T07:39:59;101303.00;;;16.70
20736;BMP180;10528;52.124;5.196;2023-04-25T07:42:26;101302.00;;;16.60
20736;BMP180;10528;52.124;5.196;2023-04-25T07:44:53;101298.00;;;16.50
20736;BMP180;10528;52.124;5.196;2023-04-25T07:47:21;101309.00;;;16.50
20736;BMP180;10528;52.124;5.196;2023-04-25T07:49:48;101309.00;;;16.40
20736;BMP180;10528;52.124;5.196;2023-04-25T07:52:15;101316.00;;;16.40
20736;BMP180;10528;52.124;5.196;2023-04-25T07:54:48;101317.00;;;16.40
20736;BMP180;10528;52.124;5.196;2023-04-25T07:57:20;101316.00;;;16.30
20736;BMP180;10528;52.124;5.196;2023-04-25T07:59:49;101317.00;;;16.30
20736;BMP180;10528;52.124;5.196;2023-04-25T08:02:16;101326.00;;;16.30
20736;BMP180;10528;52.124;5.196;2023-04-25T08:04:44;101315.00;;;16.40
20736;BMP180;10528;52.124;5.196;2023-04-25T08:07:13;101328.00;;;16.40
20736;BMP180;10528;52.124;5.196;2023-04-25T08:09:48;101329.00;;;16.50
20736;BMP180;10528;52.124;5.196;2023-04-25T08:12:22;101342.00;;;16.60
20736;BMP180;10528;52.124;5.196;2023-04-25T08:14:50;101341.00;;;16.60
20736;BMP180;10528;52.124;5.196;2023-04-25T08:17:17;101337.00;;;16.70
20736;BMP180;10528;52.124;5.196;2023-04-25T08:19:44;101347.00;;;16.70
20736;BMP180;10528;52.124;5.196;2023-04-25T08:22:21;101346.00;;;16.80
20736;BMP180;10528;52.124;5.196;2023-04-25T08:24:53;101363.00;;;16.70
20736;BMP180;10528;52.124;5.196;2023-04-25T08:27:21;101361.00;;;16.70
20736;BMP180;10528;52.124;5.196;2023-04-25T08:29:47;101383.00;;;16.70
20736;BMP180;10528;52.124;5.196;2023-04-25T08:32:14;101380.00;;;16.60
20736;BMP180;10528;52.124;5.196;2023-04-25T08:34:53;101377.00;;;16.50
20736;BMP180;10528;52.124;5.196;2023-04-25T08:37:22;101379.00;;;16.40
20736;BMP180;10528;52.124;5.196;2023-04-25T08:39:55;101378.00;;;16.20
20736;BMP180;10528;52.124;5.196;2023-04-25T08:42:50;101378.00;;;16.10
20736;BMP180;10528;52.124;5.196;2023-04-25T08:45:18;101387.00;;;16.00
20736;BMP180;10528;52.124;5.196;2023-04-25T08:47:46;101390.00;;;16.00
20736;BMP180;10528;52.124;5.196;2023-04-25T08:50:16;101390.00;;;16.00
20736;BMP180;10528;52.124;5.196;2023-04-25T08:52:45;101396.00;;;16.00
20736;BMP180;10528;52.124;5.196;2023-04-25T08:55:14;101395.00;;;16.10
20736;BMP180;10528;52.124;5.196;2023-04-25T08:57:42;101405.00;;;16.20
20736;BMP180;10528;52.124;5.196;2023-04-25T09:00:13;101401.00;;;16.30
20736;BMP180;10528;52.124;5.196;2023-04-25T09:02:43;101409.00;;;16.50
20736;BMP180;10528;52.124;5.196;2023-04-25T09:05:13;101414.00;;;16.50
20736;BMP180;10528;52.124;5.196;2023-04-25T09:07:41;101411.00;;;16.60
20736;BMP180;10528;52.124;5.196;2023-04-25T09:10:09;101418.00;;;16.70
20736;BMP180;10528;52.124;5.196;2023-04-25T09:12:37;101415.00;;;16.70
20736;BMP180;10528;52.124;5.196;2023-04-25T09:15:10;101422.00;;;16.80
20736;BMP180;10528;52.124;5.196;2023-04-25T09:18:03;101429.00;;;16.90
20736;BMP180;10528;52.124;5.196;2023-04-25T09:20:44;101431.00;;;17.10
20736;BMP180;10528;52.124;5.196;2023-04-25T09:23:28;101435.00;;;17.30
20736;BMP180;10528;52.124;5.196;2023-04-25T09:25:55;101433.00;;;17.50
20736;BMP180;10528;52.124;5.196;2023-04-25T09:28:26;101423.00;;;17.60
20736;BMP180;10528;52.124;5.196;2023-04-25T09:30:57;101434.00;;;17.70
20736;BMP180;10528;52.124;5.196;2023-04-25T09:33:41;101435.00;;;17.70
20736;BMP180;10528;52.124;5.196;2023-04-25T09:36:11;101440.00;;;17.70
20736;BMP180;10528;52.124;5.196;2023-04-25T09:39:12;101444.00;;;17.60
20736;BMP180;10528;52.124;5.196;2023-04-25T09:41:54;101460.00;;;17.50
20736;BMP180;10528;52.124;5.196;2023-04-25T09:44:24;101460.00;;;17.50
20736;BMP180;10528;52.124;5.196;2023-04-25T09:46:53;101461.00;;;17.40
20736;BMP180;10528;52.124;5.196;2023-04-25T09:49:25;101467.00;;;17.40
20736;BMP180;10528;52.124;5.196;2023-04-25T09:52:13;101481.00;;;17.40
20736;BMP180;10528;52.124;5.196;2023-04-25T09:54:51;101481.00;;;17.40
20736;BMP180;10528;52.124;5.196;2023-04-25T09:57:25;101485.00;;;17.40
20736;BMP180;10528;52.124;5.196;2023-04-25T09:59:55;101480.00;;;17.50
20736;BMP180;10528;52.124;5.196;2023-04-25T10:02:26;101480.00;;;17.50
20736;BMP180;10528;52.124;5.196;2023-04-25T10:04:58;101478.00;;;17.50
20736;BMP180;10528;52.124;5.196;2023-04-25T10:07:31;101479.00;;;17.60
20736;BMP180;10528;52.124;5.196;2023-04-25T10:10:01;101486.00;;;17.70
20736;BMP180;10528;52.124;5.196;2023-04-25T10:12:31;101481.00;;;17.70
20736;BMP180;10528;52.124;5.196;2023-04-25T10:15:00;101489.00;;;17.70
20736;BMP180;10528;52.124;5.196;2023-04-25T10:17:27;101495.00;;;17.80
20736;BMP180;10528;52.124;5.196;2023-04-25T10:19:55;101491.00;;;17.80
20736;BMP180;10528;52.124;5.196;2023-04-25T10:22:41;101486.00;;;17.80
20736;BMP180;10528;52.124;5.196;2023-04-25T10:25:08;101484.00;;;17.80
20736;BMP180;10528;52.124;5.196;2023-04-25T10:27:36;101494.00;;;17.90
20736;BMP180;10528;52.124;5.196;2023-04-25T10:30:08;101488.00;;;17.90
20736;BMP180;10528;52.124;5.196;2023-04-25T10:32:39;101481.00;;;18.00
20736;BMP180;10528;52.124;5.196;2023-04-25T10:35:18;101497.00;;;18.10
20736;BMP180;10528;52.124;5.196;2023-04-25T10:40:25;101493.00;;;18.20
20736;BMP180;10528;52.124;5.196;2023-04-25T10:42:55;101501.00;;;18.30
20736;BMP180;10528;52.124;5.196;2023-04-25T10:45:23;101499.00;;;18.30
20736;BMP180;10528;52.124;5.196;2023-04-25T10:47:50;101495.00;;;18.30
20736;BMP180;10528;52.124;5.196;2023-04-25T10:50:17;101499.00;;;18.40
20736;BMP180;10528;52.124;5.196;2023-04-25T10:52:44;101498.00;;;18.40
20736;BMP180;10528;52.124;5.196;2023-04-25T10:55:11;101486.00;;;18.50
20736;BMP180;10528;52.124;5.196;2023-04-25T10:57:44;101500.00;;;18.60
20736;BMP180;10528;52.124;5.196;2023-04-25T11:00:16;101510.00;;;18.80
20736;BMP180;10528;52.124;5.196;2023-04-25T11:02:51;101515.00;;;18.80
20736;BMP180;10528;52.124;5.196;2023-04-25T11:05:32;101521.00;;;18.80
20736;BMP180;10528;52.124;5.196;2023-04-25T11:08:11;101526.00;;;18.80
20736;BMP180;10528;52.124;5.196;2023-04-25T11:10:40;101521.00;;;18.60
20736;BMP180;10528;52.124;5.196;2023-04-25T11:13:07;101523.00;;;18.50
20736;BMP180;10528;52.124;5.196;2023-04-25T11:15:33;101525.00;;;18.40
20736;BMP180;10528;52.124;5.196;2023-04-25T11:18:00;101528.00;;;18.30
20736;BMP180;10528;52.124;5.196;2023-04-25T11:20:28;101538.00;;;18.20
20736;BMP180;10528;52.124;5.196;2023-04-25T11:22:58;101526.00;;;18.20
20736;BMP180;10528;52.124;5.196;2023-04-25T11:25:30;101535.00;;;18.20
20736;BMP180;10528;52.124;5.196;2023-04-25T11:28:00;101541.00;;;18.20
20736;BMP180;10528;52.124;5.196;2023-04-25T11:30:28;101539.00;;;18.20
20736;BMP180;10528;52.124;5.196;2023-04-25T11:32:57;101537.00;;;18.20
20736;BMP180;10528;52.124;5.196;2023-04-25T11:35:24;101540.00;;;18.30
20736;BMP180;10528;52.124;5.196;2023-04-25T11:37:52;101527.00;;;18.30
20736;BMP180;10528;52.124;5.196;2023-04-25T11:40:19;101529.00;;;18.30
20736;BMP180;10528;52.124;5.196;2023-04-25T11:42:47;101537.00;;;18.30
20736;BMP180;10528;52.124;5.196;2023-04-25T11:45:14;101535.00;;;18.40
20736;BMP180;10528;52.124;5.196;2023-04-25T11:47:41;101548.00;;;18.30
20736;BMP180;10528;52.124;5.196;2023-04-25T11:50:09;101547.00;;;18.40
20736;BMP180;10528;52.124;5.196;2023-04-25T11:52:45;101565.00;;;18.40
20736;BMP180;10528;52.124;5.196;2023-04-25T11:55:18;101564.00;;;18.30
20736;BMP180;10528;52.124;5.196;2023-04-25T11:57:48;101565.00;;;18.30
20736;BMP180;10528;52.124;5.196;2023-04-25T12:00:21;101564.00;;;18.30
20736;BMP180;10528;52.124;5.196;2023-04-25T12:02:54;101573.00;;;18.30
20736;BMP180;10528;52.124;5.196;2023-04-25T12:05:29;101578.00;;;18.20
20736;BMP180;10528;52.124;5.196;2023-04-25T12:08:13;101576.00;;;18.10
20736;BMP180;10528;52.124;5.196;2023-04-25T12:10:43;101573.00;;;17.90
20736;BMP180;10528;52.124;5.196;2023-04-25T12:13:23;101577.00;;;17.90
20736;BMP180;10528;52.124;5.196;2023-04-25T12:15:54;101573.00;;;17.80
20736;BMP180;10528;52.124;5.196;2023-04-25T12:18:25;101575.00;;;17.80
20736;BMP180;10528;52.124;5.196;2023-04-25T12:20:55;101579.00;;;17.80
20736;BMP180;10528;52.124;5.196;2023-04-25T12:23:27;101571.00;;;17.70
20736;BMP180;10528;52.124;5.196;2023-04-25T12:25:55;101575.00;;;17.70
20736;BMP180;10528;52.124;5.196;2023-04-25T12:28:25;101579.00;;;17.60
20736;BMP180;10528;52.124;5.196;2023-04-25T12:31:04;101572.00;;;17.70
20736;BMP180;10528;52.124;5.196;2023-04-25T12:33:35;101575.00;;;17.80
20736;BMP180;10528;52.124;5.196;2023-04-25T12:36:04;101563.00;;;17.90
20736;BMP180;10528;52.124;5.196;2023-04-25T12:38:40;101562.00;;;17.90
20736;BMP180;10528;52.124;5.196;2023-04-25T12:41:08;101567.00;;;18.10
20736;BMP180;10528;52.124;5.196;2023-04-25T12:43:35;101560.00;;;18.20
20736;BMP180;10528;52.124;5.196;2023-04-25T12:46:02;101561.00;;;18.30
20736;BMP180;10528;52.124;5.196;2023-04-25T12:48:29;101563.00;;;18.40
20736;BMP180;10528;52.124;5.196;2023-04-25T12:50:56;101570.00;;;18.50
20736;BMP180;10528;52.124;5.196;2023-04-25T12:53:23;101572.00;;;18.50
20736;BMP180;10528;52.124;5.196;2023-04-25T12:55:51;101579.00;;;18.60
20736;BMP180;10528;52.124;5.196;2023-04-25T12:58:19;101588.00;;;18.60
20736;BMP180;10528;52.124;5.196;2023-04-25T13:00:47;101578.00;;;18.60
20736;BMP180;10528;52.124;5.196;2023-04-25T13:03:14;101581.00;;;18.60
20736;BMP180;10528;52.124;5.196;2023-04-25T13:05:42;101571.00;;;18.70
20736;BMP180;10528;52.124;5.196;2023-04-25T13:08:09;101580.00;;;18.60
20736;BMP180;10528;52.124;5.196;2023-04-25T13:10:36;101570.00;;;18.70
20736;BMP180;10528;52.124;5.196;2023-04-25T13:13:05;101583.00;;;18.70
20736;BMP180;10528;52.124;5.196;2023-04-25T13:15:32;101575.00;;;18.70
20736;BMP180;10528;52.124;5.196;2023-04-25T13:17:59;101579.00;;;18.70
20736;BMP180;10528;52.124;5.196;2023-04-25T13:20:26;101566.00;;;18.80
20736;BMP180;10528;52.124;5.196;2023-04-25T13:22:53;101581.00;;;18.80
20736;BMP180;10528;52.124;5.196;2023-04-25T13:25:20;101573.00;;;18.90
20736;BMP180;10528;52.124;5.196;2023-04-25T13:27:48;101576.00;;;18.90
20736;BMP180;10528;52.124;5.196;2023-04-25T13:30:15;101574.00;;;18.90
20736;BMP180;10528;52.124;5.196;2023-04-25T13:32:42;101567.00;;;19.00
20736;BMP180;10528;52.124;5.196;2023-04-25T13:35:12;101578.00;;;19.00
20736;BMP180;10528;52.124;5.196;2023-04-25T13:37:40;101578.00;;;18.90
20736;BMP180;10528;52.124;5.196;2023-04-25T13:40:10;101582.00;;;19.00
20736;BMP180;10528;52.124;5.196;2023-04-25T13:42:38;101585.00;;;19.00
20736;BMP180;10528;52.124;5.196;2023-04-25T13:45:07;101581.00;;;19.10
20736;BMP180;10528;52.124;5.196;2023-04-25T13:47:34;101583.00;;;19.10
20736;BMP180;10528;52.124;5.196;2023-04-25T13:50:03;101589.00;;;19.10
20736;BMP180;10528;52.124;5.196;2023-04-25T13:52:32;101582.00;;;19.10
20736;BMP180;10528;52.124;5.196;2023-04-25T13:54:59;101591.00;;;19.20
20736;BMP180;10528;52.124;5.196;2023-04-25T13:57:26;101583.00;;;19.20
20736;BMP180;10528;52.124;5.196;2023-04-25T13:59:54;101588.00;;;19.20
20736;BMP180;10528;52.124;5.196;2023-04-25T14:02:20;101598.00;;;19.20
20736;BMP180;10528;52.124;5.196;2023-04-25T14:04:48;101594.00;;;19.20
20736;BMP180;10528;52.124;5.196;2023-04-25T14:07:15;101590.00;;;19.20
20736;BMP180;10528;52.124;5.196;2023-04-25T14:09:45;101599.00;;;19.20
20736;BMP180;10528;52.124;5.196;2023-04-25T14:12:13;101593.00;;;19.10
20736;BMP180;10528;52.124;5.196;2023-04-25T14:14:40;101614.00;;;19.10
20736;BMP180;10528;52.124;5.196;2023-04-25T14:17:08;101618.00;;;19.00
20736;BMP180;10528;52.124;5.196;2023-04-25T14:19:35;101626.00;;;18.90